sensor_id;sensor_type;location;lat;lon;timestamp;P1;durP1;ratioP1;P2;durP2;ratioP2
69485;SDS011;56677;51.710;5.366;2023-08-08T04:04:16;4.00;;;1.80;;
69485;SDS011;56677;51.710;5.366;2023-08-08T04:06:41;3.47;;;1.60;;
69485;SDS011;56677;51.710;5.366;2023-08-08T04:09:06;3.08;;;1.90;;
69485;SDS011;56677;51.710;5.366;2023-08-08T04:11:32;4.53;;;2.30;;
69485;SDS011;56677;51.710;5.366;2023-08-08T04:13:57;4.03;;;1.98;;
69485;SDS011;56677;51.710;5.366;2023-08-08T04:16:22;6.22;;;2.10;;
69485;SDS011;56677;51.710;5.366;2023-08-08T04:18:47;4.80;;;1.65;;
69485;SDS011;56677;51.710;5.366;2023-08-08T04:21:12;5.80;;;2.00;;
69485;SDS011;56677;51.710;5.366;2023-08-08T04:23:37;4.20;;;1.60;;
69485;SDS011;56677;51.710;5.366;2023-08-08T04:26:02;6.50;;;1.88;;
69485;SDS011;56677;51.710;5.366;2023-08-08T04:28:27;5.47;;;2.00;;
69485;SDS011;56677;51.710;5.366;2023-08-08T04:30:53;5.63;;;2.13;;
69485;SDS011;56677;51.710;5.366;2023-08-08T04:33:18;5.00;;;1.90;;
69485;SDS011;56677;51.710;5.366;2023-08-08T04:35:44;9.23;;;1.85;;
69485;SDS011;56677;51.710;5.366;2023-08-08T04:38:09;4.22;;;1.60;;
69485;SDS011;56677;51.710;5.366;2023-08-08T04:40:34;4.28;;;1.98;;
69485;SDS011;56677;51.710;5.366;2023-08-08T04:43:00;8.45;;;1.95;;
69485;SDS011;56677;51.710;5.366;2023-08-08T04:45:25;4.67;;;2.03;;
69485;SDS011;56677;51.710;5.366;2023-08-08T04:47:50;7.43;;;1.77;;
69485;SDS011;56677;51.710;5.366;2023-08-08T04:50:15;4.80;;;1.92;;
69485;SDS011;56677;51.710;5.366;2023-08-08T04:52:41;3.53;;;2.00;;
69485;SDS011;56677;51.710;5.366;2023-08-08T04:55:06;6.07;;;1.80;;
69485;SDS011;56677;51.710;5.366;2023-08-08T04:57:31;4.30;;;1.80;;
69485;SDS011;56677;51.710;5.366;2023-08-08T04:59:56;4.13;;;1.75;;
69485;SDS011;56677;51.710;5.366;2023-08-08T05:02:21;4.23;;;2.00;;
69485;SDS011;56677;51.710;5.366;2023-08-08T05:04:46;3.30;;;1.77;;
69485;SDS011;56677;51.710;5.366;2023-08-08T05:07:12;4.70;;;1.80;;
69485;SDS011;56677;51.710;5.366;2023-08-08T05:09:37;3.80;;;1.87;;
69485;SDS011;56677;51.710;5.366;2023-08-08T05:12:02;5.32;;;2.20;;
69485;SDS011;56677;51.710;5.366;2023-08-08T05:14:27;5.27;;;1.67;;
69485;SDS011;56677;51.710;5.366;2023-08-08T05:16:52;7.03;;;2.30;;
69485;SDS011;56677;51.710;5.366;2023-08-08T05:19:17;4.80;;;1.65;;
69485;SDS011;56677;51.710;5.366;2023-08-08T05:21:42;3.97;;;1.83;;
69485;SDS011;56677;51.710;5.366;2023-08-08T05:24:08;6.53;;;1.67;;
69485;SDS011;56677;51.710;5.366;2023-08-08T05:26:33;6.30;;;2.00;;
69485;SDS011;56677;51.710;5.366;2023-08-08T05:28:59;5.70;;;2.05;;
69485;SDS011;56677;51.710;5.366;2023-08-08T05:31:24;7.30;;;2.20;;
69485;SDS011;56677;51.710;5.366;2023-08-08T05:33:49;4.93;;;1.90;;
69485;SDS011;56677;51.710;5.366;2023-08-08T05:36:15;4.13;;;1.67;;
69485;SDS011;56677;51.710;5.366;2023-08-08T05:38:40;4.95;;;1.70;;
69485;SDS011;56677;51.710;5.366;2023-08-08T05:41:05;5.10;;;1.83;;
69485;SDS011;56677;51.710;5.366;2023-08-08T05:43:30;4.38;;;1.63;;
69485;SDS011;56677;51.710;5.366;2023-08-08T05:45:55;5.10;;;1.77;;
69485;SDS011;56677;51.710;5.366;2023-08-08T05:48:20;6.18;;;1.83;;
69485;SDS011;56677;51.710;5.366;2023-08-08T05:50:45;7.03;;;1.90;;
69485;SDS011;56677;51.710;5.366;2023-08-08T05:53:10;6.23;;;1.80;;
69485;SDS011;56677;51.710;5.366;2023-08-08T05:55:36;5.07;;;2.10;;
69485;SDS011;56677;51.710;5.366;2023-08-08T05:58:01;6.28;;;1.77;;
69485;SDS011;56677;51.710;5.366;2023-08-08T06:00:26;6.22;;;1.75;;
69485;SDS011;56677;51.710;5.366;2023-08-08T06:02:51;6.03;;;1.85;;
69485;SDS011;56677;51.710;5.366;2023-08-08T06:05:16;5.03;;;2.08;;
69485;SDS011;56677;51.710;5.366;2023-08-08T06:07:42;5.90;;;1.90;;
69485;SDS011;56677;51.710;5.366;2023-08-08T06:10:07;4.55;;;1.80;;
69485;SDS011;56677;51.710;5.366;2023-08-08T06:12:32;8.93;;;1.80;;
69485;SDS011;56677;51.710;5.366;2023-08-08T06:14:57;19.50;;;2.40;;
69485;SDS011;56677;51.710;5.366;2023-08-08T06:17:23;8.65;;;1.48;;
69485;SDS011;56677;51.710;5.366;2023-08-08T06:19:48;5.80;;;1.83;;
69485;SDS011;56677;51.710;5.366;2023-08-08T06:22:13;4.63;;;1.90;;
69485;SDS011;56677;51.710;5.366;2023-08-08T06:24:38;4.45;;;1.50;;
69485;SDS011;56677;51.710;5.366;2023-08-08T06:27:03;4.30;;;1.55;;
69485;SDS011;56677;51.710;5.366;2023-08-08T06:29:28;5.87;;;1.90;;
69485;SDS011;56677;51.710;5.366;2023-08-08T06:31:53;5.28;;;2.30;;
69485;SDS011;56677;51.710;5.366;2023-08-08T06:34:19;3.53;;;1.90;;
69485;SDS011;56677;51.710;5.366;2023-08-08T06:36:44;8.18;;;2.10;;
69485;SDS011;56677;51.710;5.366;2023-08-08T06:39:09;6.40;;;2.40;;
69485;SDS011;56677;51.710;5.366;2023-08-08T06:41:34;6.75;;;1.90;;
69485;SDS011;56677;51.710;5.366;2023-08-08T06:43:59;6.25;;;2.10;;
69485;SDS011;56677;51.710;5.366;2023-08-08T06:46:25;5.63;;;2.20;;
69485;SDS011;56677;51.710;5.366;2023-08-08T06:48:51;4.70;;;2.33;;
69485;SDS011;56677;51.710;5.366;2023-08-08T06:51:16;7.32;;;2.33;;
69485;SDS011;56677;51.710;5.366;2023-08-08T06:53:41;8.90;;;2.20;;
69485;SDS011;56677;51.710;5.366;2023-08-08T06:56:06;4.68;;;1.65;;
69485;SDS011;56677;51.710;5.366;2023-08-08T06:58:31;6.80;;;1.75;;
69485;SDS011;56677;51.710;5.366;2023-08-08T07:00:57;5.88;;;1.80;;
69485;SDS011;56677;51.710;5.366;2023-08-08T07:03:22;7.63;;;1.97;;
69485;SDS011;56677;51.710;5.366;2023-08-08T07:05:48;6.13;;;2.05;;
69485;SDS011;56677;51.710;5.366;2023-08-08T07:08:13;5.32;;;2.00;;
69485;SDS011;56677;51.710;5.366;2023-08-08T07:10:38;6.35;;;2.13;;
69485;SDS011;56677;51.710;5.366;2023-08-08T07:13:03;5.07;;;2.00;;
69485;SDS011;56677;51.710;5.366;2023-08-08T07:15:28;6.73;;;2.23;;
69485;SDS011;56677;51.710;5.366;2023-08-08T07:17:53;5.85;;;1.90;;
69485;SDS011;56677;51.710;5.366;2023-08-08T07:20:19;7.10;;;2.00;;
69485;SDS011;56677;51.710;5.366;2023-08-08T07:22:44;3.63;;;1.73;;
69485;SDS011;56677;51.710;5.366;2023-08-08T07:25:09;4.78;;;2.00;;
69485;SDS011;56677;51.710;5.366;2023-08-08T07:27:34;6.75;;;2.28;;
69485;SDS011;56677;51.710;5.366;2023-08-08T07:29:59;3.87;;;1.80;;
69485;SDS011;56677;51.710;5.366;2023-08-08T07:32:24;4.55;;;1.90;;
69485;SDS011;56677;51.710;5.366;2023-08-08T07:34:49;7.03;;;1.97;;
69485;SDS011;56677;51.710;5.366;2023-08-08T07:37:15;6.18;;;1.83;;
69485;SDS011;56677;51.710;5.366;2023-08-08T07:39:40;4.63;;;2.00;;
69485;SDS011;56677;51.710;5.366;2023-08-08T07:42:05;8.13;;;2.20;;
69485;SDS011;56677;51.710;5.366;2023-08-08T07:44:30;4.93;;;1.90;;
69485;SDS011;56677;51.710;5.366;2023-08-08T07:46:55;8.20;;;1.83;;
69485;SDS011;56677;51.710;5.366;2023-08-08T07:49:20;9.87;;;1.97;;
69485;SDS011;56677;51.710;5.366;2023-08-08T07:51:45;7.55;;;2.08;;
69485;SDS011;56677;51.710;5.366;2023-08-08T07:54:11;5.85;;;2.17;;
69485;SDS011;56677;51.710;5.366;2023-08-08T07:56:36;9.93;;;2.10;;
69485;SDS011;56677;51.710;5.366;2023-08-08T07:59:02;6.23;;;2.30;;
69485;SDS011;56677;51.710;5.366;2023-08-08T08:01:28;5.93;;;2.05;;
69485;SDS011;56677;51.710;5.366;2023-08-08T08:03:53;8.10;;;2.20;;
69485;SDS011;56677;51.710;5.366;2023-08-08T08:06:19;6.83;;;2.00;;
69485;SDS011;56677;51.710;5.366;2023-08-08T08:08:44;6.90;;;1.70;;
69485;SDS011;56677;51.710;5.366;2023-08-08T08:11:09;4.70;;;2.00;;
69485;SDS011;56677;51.710;5.366;2023-08-08T08:13:34;4.70;;;2.28;;
69485;SDS011;56677;51.710;5.366;2023-08-08T08:15:59;6.18;;;2.40;;
69485;SDS011;56677;51.710;5.366;2023-08-08T08:18:24;7.95;;;1.90;;
69485;SDS011;56677;51.710;5.366;2023-08-08T08:20:49;5.18;;;1.65;;
69485;SDS011;56677;51.710;5.366;2023-08-08T08:23:15;7.33;;;1.90;;
69485;SDS011;56677;51.710;5.366;2023-08-08T08:25:40;5.70;;;1.88;;
69485;SDS011;56677;51.710;5.366;2023-08-08T08:28:05;5.07;;;1.70;;
69485;SDS011;56677;51.710;5.366;2023-08-08T08:30:30;8.73;;;1.73;;
69485;SDS011;56677;51.710;5.366;2023-08-08T08:32:55;3.85;;;1.65;;
69485;SDS011;56677;51.710;5.366;2023-08-08T08:35:20;5.33;;;1.90;;
69485;SDS011;56677;51.710;5.366;2023-08-08T08:37:46;5.47;;;2.00;;
69485;SDS011;56677;51.710;5.366;2023-08-08T08:40:11;6.17;;;1.77;;
69485;SDS011;56677;51.710;5.366;2023-08-08T08:42:37;4.87;;;1.40;;
69485;SDS011;56677;51.710;5.366;2023-08-08T08:45:03;3.95;;;2.05;;
69485;SDS011;56677;51.710;5.366;2023-08-08T08:47:29;6.40;;;2.10;;
69485;SDS011;56677;51.710;5.366;2023-08-08T08:49:54;6.75;;;2.10;;
69485;SDS011;56677;51.710;5.366;2023-08-08T08:52:20;3.97;;;1.73;;
69485;SDS011;56677;51.710;5.366;2023-08-08T08:54:45;6.33;;;1.83;;
69485;SDS011;56677;51.710;5.366;2023-08-08T08:57:11;4.80;;;1.50;;
69485;SDS011;56677;51.710;5.366;2023-08-08T08:59:36;5.90;;;1.97;;
69485;SDS011;56677;51.710;5.366;2023-08-08T09:02:01;6.30;;;1.53;;
69485;SDS011;56677;51.710;5.366;2023-08-08T09:04:27;7.40;;;1.67;;
69485;SDS011;56677;51.710;5.366;2023-08-08T09:06:53;11.50;;;1.67;;
69485;SDS011;56677;51.710;5.366;2023-08-08T09:09:18;9.93;;;2.63;;
69485;SDS011;56677;51.710;5.366;2023-08-08T09:11:44;12.25;;;2.10;;
69485;SDS011;56677;51.710;5.366;2023-08-08T09:14:19;12.77;;;1.67;;
69485;SDS011;56677;51.710;5.366;2023-08-08T09:16:45;12.50;;;1.40;;
69485;SDS011;56677;51.710;5.366;2023-08-08T09:19:11;12.63;;;1.92;;
69485;SDS011;56677;51.710;5.366;2023-08-08T10:27:40;5.00;;;1.60;;
69485;SDS011;56677;51.710;5.366;2023-08-08T10:30:05;5.43;;;1.50;;
69485;SDS011;56677;51.710;5.366;2023-08-08T10:32:37;9.18;;;1.48;;
69485;SDS011;56677;51.710;5.366;2023-08-08T10:35:03;8.80;;;1.27;;
69485;SDS011;56677;51.710;5.366;2023-08-08T10:37:28;9.23;;;1.30;;
69485;SDS011;56677;51.710;5.366;2023-08-08T10:39:53;4.17;;;1.47;;
69485;SDS011;56677;51.710;5.366;2023-08-08T10:42:19;8.00;;;1.77;;
69485;SDS011;56677;51.710;5.366;2023-08-08T10:44:50;7.88;;;1.60;;
69485;SDS011;56677;51.710;5.366;2023-08-08T10:47:15;5.93;;;1.67;;
69485;SDS011;56677;51.710;5.366;2023-08-08T10:49:41;5.63;;;1.40;;
69485;SDS011;56677;51.710;5.366;2023-08-08T10:52:07;5.38;;;1.48;;
69485;SDS011;56677;51.710;5.366;2023-08-08T10:54:38;6.43;;;1.55;;
69485;SDS011;56677;51.710;5.366;2023-08-08T10:57:04;4.90;;;1.33;;
69485;SDS011;56677;51.710;5.366;2023-08-08T10:59:36;5.33;;;1.67;;
69485;SDS011;56677;51.710;5.366;2023-08-08T11:02:02;4.07;;;1.90;;
69485;SDS011;56677;51.710;5.366;2023-08-08T11:04:28;6.93;;;1.60;;
69485;SDS011;56677;51.710;5.366;2023-08-08T11:06:53;3.63;;;1.33;;
69485;SDS011;56677;51.710;5.366;2023-08-08T11:09:19;6.65;;;1.67;;
69485;SDS011;56677;51.710;5.366;2023-08-08T11:11:44;5.63;;;1.80;;
69485;SDS011;56677;51.710;5.366;2023-08-08T11:14:10;2.73;;;1.17;;
69485;SDS011;56677;51.710;5.366;2023-08-08T11:16:35;6.10;;;1.33;;
69485;SDS011;56677;51.710;5.366;2023-08-08T11:19:01;5.00;;;1.70;;
69485;SDS011;56677;51.710;5.366;2023-08-08T11:21:26;5.13;;;1.40;;
69485;SDS011;56677;51.710;5.366;2023-08-08T11:23:51;5.20;;;1.35;;
69485;SDS011;56677;51.710;5.366;2023-08-08T11:26:19;4.32;;;1.45;;
69485;SDS011;56677;51.710;5.366;2023-08-08T11:28:51;8.02;;;1.88;;
69485;SDS011;56677;51.710;5.366;2023-08-08T11:31:17;6.80;;;1.57;;
69485;SDS011;56677;51.710;5.366;2023-08-08T11:33:42;4.65;;;1.60;;
69485;SDS011;56677;51.710;5.366;2023-08-08T11:36:07;4.43;;;1.13;;
69485;SDS011;56677;51.710;5.366;2023-08-08T11:38:33;8.05;;;2.58;;
69485;SDS011;56677;51.710;5.366;2023-08-08T11:40:58;3.83;;;1.70;;
69485;SDS011;56677;51.710;5.366;2023-08-08T11:43:24;6.43;;;1.67;;
69485;SDS011;56677;51.710;5.366;2023-08-08T11:45:49;4.45;;;1.58;;
69485;SDS011;56677;51.710;5.366;2023-08-08T11:48:14;5.77;;;1.40;;
69485;SDS011;56677;51.710;5.366;2023-08-08T11:50:40;7.18;;;1.48;;
69485;SDS011;56677;51.710;5.366;2023-08-08T11:53:06;4.53;;;1.20;;
69485;SDS011;56677;51.710;5.366;2023-08-08T11:55:31;3.83;;;1.43;;
69485;SDS011;56677;51.710;5.366;2023-08-08T11:57:56;3.63;;;1.80;;
69485;SDS011;56677;51.710;5.366;2023-08-08T12:00:26;3.92;;;1.60;;
69485;SDS011;56677;51.710;5.366;2023-08-08T12:02:52;5.57;;;1.27;;
69485;SDS011;56677;51.710;5.366;2023-08-08T12:05:20;3.83;;;1.30;;
69485;SDS011;56677;51.710;5.366;2023-08-08T12:07:46;3.60;;;1.35;;
69485;SDS011;56677;51.710;5.366;2023-08-08T12:10:15;7.68;;;1.30;;
69485;SDS011;56677;51.710;5.366;2023-08-08T12:12:41;3.65;;;1.02;;
69485;SDS011;56677;51.710;5.366;2023-08-08T12:15:06;4.50;;;1.57;;
69485;SDS011;56677;51.710;5.366;2023-08-08T12:17:32;3.53;;;1.20;;
69485;SDS011;56677;51.710;5.366;2023-08-08T12:20:00;3.53;;;1.50;;
69485;SDS011;56677;51.710;5.366;2023-08-08T12:22:26;6.18;;;1.40;;
69485;SDS011;56677;51.710;5.366;2023-08-08T12:24:51;2.20;;;1.10;;
69485;SDS011;56677;51.710;5.366;2023-08-08T12:27:16;3.07;;;1.20;;
69485;SDS011;56677;51.710;5.366;2023-08-08T12:29:41;3.30;;;1.40;;
69485;SDS011;56677;51.710;5.366;2023-08-08T12:32:08;2.92;;;1.20;;
69485;SDS011;56677;51.710;5.366;2023-08-08T12:34:33;3.25;;;1.20;;
69485;SDS011;56677;51.710;5.366;2023-08-08T12:36:59;3.10;;;1.37;;
69485;SDS011;56677;51.710;5.366;2023-08-08T12:39:24;3.05;;;1.20;;
69485;SDS011;56677;51.710;5.366;2023-08-08T12:41:49;3.08;;;1.35;;
69485;SDS011;56677;51.710;5.366;2023-08-08T12:44:14;2.20;;;1.40;;
69485;SDS011;56677;51.710;5.366;2023-08-08T12:46:39;3.07;;;1.43;;
69485;SDS011;56677;51.710;5.366;2023-08-08T12:49:04;4.25;;;1.20;;
69485;SDS011;56677;51.710;5.366;2023-08-08T12:51:29;4.07;;;1.13;;
69485;SDS011;56677;51.710;5.366;2023-08-08T12:53:55;3.20;;;1.33;;
69485;SDS011;56677;51.710;5.366;2023-08-08T12:56:20;3.85;;;1.30;;
69485;SDS011;56677;51.710;5.366;2023-08-08T12:58:45;4.70;;;1.02;;
69485;SDS011;56677;51.710;5.366;2023-08-08T13:01:10;3.77;;;1.40;;
69485;SDS011;56677;51.710;5.366;2023-08-08T13:03:35;3.05;;;1.10;;
69485;SDS011;56677;51.710;5.366;2023-08-08T13:06:00;2.78;;;1.25;;
69485;SDS011;56677;51.710;5.366;2023-08-08T13:08:25;2.33;;;1.40;;
69485;SDS011;56677;51.710;5.366;2023-08-08T13:10:51;1.70;;;1.05;;
69485;SDS011;56677;51.710;5.366;2023-08-08T13:13:16;3.17;;;1.30;;
69485;SDS011;56677;51.710;5.366;2023-08-08T13:15:41;2.60;;;1.10;;
69485;SDS011;56677;51.710;5.366;2023-08-08T13:18:06;8.90;;;1.30;;
69485;SDS011;56677;51.710;5.366;2023-08-08T13:20:31;4.23;;;1.20;;
69485;SDS011;56677;51.710;5.366;2023-08-08T13:22:56;2.20;;;1.33;;
69485;SDS011;56677;51.710;5.366;2023-08-08T13:25:22;5.90;;;1.33;;
69485;SDS011;56677;51.710;5.366;2023-08-08T13:27:47;4.35;;;1.60;;
69485;SDS011;56677;51.710;5.366;2023-08-08T13:30:12;4.03;;;1.07;;
69485;SDS011;56677;51.710;5.366;2023-08-08T13:32:37;2.37;;;1.30;;
69485;SDS011;56677;51.710;5.366;2023-08-08T13:35:03;8.10;;;1.73;;
69485;SDS011;56677;51.710;5.366;2023-08-08T13:37:29;5.20;;;0.93;;
69485;SDS011;56677;51.710;5.366;2023-08-08T13:39:54;3.53;;;1.33;;
69485;SDS011;56677;51.710;5.366;2023-08-08T13:42:19;4.20;;;1.33;;
69485;SDS011;56677;51.710;5.366;2023-08-08T13:44:44;6.15;;;1.50;;
69485;SDS011;56677;51.710;5.366;2023-08-08T13:47:09;4.63;;;1.17;;
69485;SDS011;56677;51.710;5.366;2023-08-08T13:49:34;6.57;;;1.60;;
69485;SDS011;56677;51.710;5.366;2023-08-08T13:51:59;2.70;;;1.00;;
69485;SDS011;56677;51.710;5.366;2023-08-08T13:54:25;2.35;;;0.98;;
69485;SDS011;56677;51.710;5.366;2023-08-08T13:56:50;3.92;;;1.40;;
69485;SDS011;56677;51.710;5.366;2023-08-08T13:59:15;6.55;;;1.30;;
69485;SDS011;56677;51.710;5.366;2023-08-08T14:01:40;3.95;;;1.25;;
69485;SDS011;56677;51.710;5.366;2023-08-08T14:04:05;3.50;;;1.20;;
69485;SDS011;56677;51.710;5.366;2023-08-08T14:06:30;3.20;;;1.20;;
69485;SDS011;56677;51.710;5.366;2023-08-08T14:08:56;2.30;;;1.43;;
69485;SDS011;56677;51.710;5.366;2023-08-08T14:11:21;5.20;;;1.40;;
69485;SDS011;56677;51.710;5.366;2023-08-08T14:13:46;4.60;;;1.40;;
69485;SDS011;56677;51.710;5.366;2023-08-08T14:16:11;3.90;;;1.00;;
69485;SDS011;56677;51.710;5.366;2023-08-08T14:18:37;2.67;;;1.20;;
69485;SDS011;56677;51.710;5.366;2023-08-08T14:21:02;2.30;;;0.97;;
69485;SDS011;56677;51.710;5.366;2023-08-08T14:23:27;3.93;;;1.70;;
69485;SDS011;56677;51.710;5.366;2023-08-08T14:25:52;7.43;;;1.63;;
69485;SDS011;56677;51.710;5.366;2023-08-08T14:28:17;3.75;;;1.50;;
69485;SDS011;56677;51.710;5.366;2023-08-08T14:30:42;2.33;;;1.30;;
69485;SDS011;56677;51.710;5.366;2023-08-08T14:33:07;3.77;;;1.20;;
69485;SDS011;56677;51.710;5.366;2023-08-08T14:35:33;4.45;;;1.40;;
69485;SDS011;56677;51.710;5.366;2023-08-08T14:37:58;2.80;;;1.35;;
69485;SDS011;56677;51.710;5.366;2023-08-08T14:40:23;2.03;;;1.30;;
69485;SDS011;56677;51.710;5.366;2023-08-08T14:42:48;2.85;;;1.10;;
69485;SDS011;56677;51.710;5.366;2023-08-08T14:45:13;1.85;;;1.30;;
69485;SDS011;56677;51.710;5.366;2023-08-08T14:47:38;1.87;;;1.07;;
69485;SDS011;56677;51.710;5.366;2023-08-08T14:50:04;1.92;;;1.00;;
69485;SDS011;56677;51.710;5.366;2023-08-08T14:52:29;2.00;;;1.00;;
69485;SDS011;56677;51.710;5.366;2023-08-08T14:54:54;3.92;;;1.40;;
69485;SDS011;56677;51.710;5.366;2023-08-08T14:57:20;4.07;;;1.53;;
69485;SDS011;56677;51.710;5.366;2023-08-08T14:59:45;3.13;;;1.42;;
69485;SDS011;56677;51.710;5.366;2023-08-08T15:02:10;2.78;;;1.48;;
69485;SDS011;56677;51.710;5.366;2023-08-08T15:04:35;2.30;;;0.93;;
69485;SDS011;56677;51.710;5.366;2023-08-08T15:07:01;2.37;;;1.20;;
69485;SDS011;56677;51.710;5.366;2023-08-08T15:09:26;2.07;;;1.40;;
69485;SDS011;56677;51.710;5.366;2023-08-08T15:11:51;2.92;;;1.00;;
69485;SDS011;56677;51.710;5.366;2023-08-08T15:14:16;3.05;;;1.27;;
69485;SDS011;56677;51.710;5.366;2023-08-08T15:16:41;4.13;;;1.10;;
69485;SDS011;56677;51.710;5.366;2023-08-08T15:19:06;3.33;;;1.10;;
69485;SDS011;56677;51.710;5.366;2023-08-08T15:21:31;3.70;;;1.20;;
69485;SDS011;56677;51.710;5.366;2023-08-08T15:23:57;3.47;;;0.98;;
69485;SDS011;56677;51.710;5.366;2023-08-08T15:26:22;2.20;;;1.08;;
69485;SDS011;56677;51.710;5.366;2023-08-08T15:28:48;4.22;;;1.10;;
69485;SDS011;56677;51.710;5.366;2023-08-08T15:31:13;3.70;;;1.45;;
69485;SDS011;56677;51.710;5.366;2023-08-08T15:33:38;2.57;;;1.20;;
69485;SDS011;56677;51.710;5.366;2023-08-08T15:36:06;3.60;;;1.10;;
69485;SDS011;56677;51.710;5.366;2023-08-08T15:38:32;4.33;;;1.20;;
69485;SDS011;56677;51.710;5.366;2023-08-08T15:40:57;2.77;;;1.17;;
69485;SDS011;56677;51.710;5.366;2023-08-08T15:43:22;2.97;;;1.13;;
69485;SDS011;56677;51.710;5.366;2023-08-08T15:45:47;3.15;;;1.20;;
69485;SDS011;56677;51.710;5.366;2023-08-08T15:48:12;4.53;;;1.63;;
69485;SDS011;56677;51.710;5.366;2023-08-08T15:50:37;7.07;;;1.47;;
69485;SDS011;56677;51.710;5.366;2023-08-08T15:53:03;5.63;;;1.70;;
69485;SDS011;56677;51.710;5.366;2023-08-08T15:55:28;3.27;;;1.40;;
69485;SDS011;56677;51.710;5.366;2023-08-08T15:57:54;4.07;;;1.60;;
69485;SDS011;56677;51.710;5.366;2023-08-08T16:00:20;4.63;;;1.40;;
69485;SDS011;56677;51.710;5.366;2023-08-08T16:02:45;4.65;;;1.20;;
69485;SDS011;56677;51.710;5.366;2023-08-08T16:05:10;3.80;;;1.30;;
69485;SDS011;56677;51.710;5.366;2023-08-08T16:07:35;4.30;;;1.40;;
69485;SDS011;56677;51.710;5.366;2023-08-08T16:10:00;3.43;;;1.50;;
69485;SDS011;56677;51.710;5.366;2023-08-08T16:12:26;4.30;;;1.40;;
69485;SDS011;56677;51.710;5.366;2023-08-08T16:14:51;4.15;;;1.30;;
69485;SDS011;56677;51.710;5.366;2023-08-08T16:17:16;3.80;;;1.50;;
69485;SDS011;56677;51.710;5.366;2023-08-08T16:19:41;3.67;;;1.42;;
69485;SDS011;56677;51.710;5.366;2023-08-08T16:22:06;3.17;;;1.50;;
69485;SDS011;56677;51.710;5.366;2023-08-08T16:24:31;4.93;;;1.42;;
69485;SDS011;56677;51.710;5.366;2023-08-08T16:26:56;3.05;;;1.38;;
69485;SDS011;56677;51.710;5.366;2023-08-08T16:29:22;3.80;;;1.45;;
69485;SDS011;56677;51.710;5.366;2023-08-08T16:31:47;4.93;;;1.40;;
69485;SDS011;56677;51.710;5.366;2023-08-08T16:34:12;5.80;;;1.45;;
69485;SDS011;56677;51.710;5.366;2023-08-08T16:36:37;3.20;;;1.30;;
69485;SDS011;56677;51.710;5.366;2023-08-08T16:39:02;7.07;;;1.60;;
69485;SDS011;56677;51.710;5.366;2023-08-08T16:41:27;7.63;;;1.60;;
69485;SDS011;56677;51.710;5.366;2023-08-08T16:44:02;6.47;;;1.23;;
69485;SDS011;56677;51.710;5.366;2023-08-08T16:46:28;2.58;;;1.30;;
69485;SDS011;56677;51.710;5.366;2023-08-08T16:48:53;2.60;;;1.33;;
69485;SDS011;56677;51.710;5.366;2023-08-08T16:51:18;7.07;;;1.37;;
69485;SDS011;56677;51.710;5.366;2023-08-08T16:53:44;3.53;;;1.27;;
69485;SDS011;56677;51.710;5.366;2023-08-08T16:56:09;4.53;;;1.10;;
69485;SDS011;56677;51.710;5.366;2023-08-08T16:58:34;3.93;;;1.20;;
69485;SDS011;56677;51.710;5.366;2023-08-08T17:00:59;5.00;;;1.80;;
69485;SDS011;56677;51.710;5.366;2023-08-08T17:03:24;3.33;;;1.10;;
69485;SDS011;56677;51.710;5.366;2023-08-08T17:05:50;3.70;;;1.40;;
69485;SDS011;56677;51.710;5.366;2023-08-08T17:08:15;5.75;;;1.20;;
69485;SDS011;56677;51.710;5.366;2023-08-08T17:10:40;9.38;;;1.70;;
69485;SDS011;56677;51.710;5.366;2023-08-08T17:13:05;3.85;;;1.27;;
69485;SDS011;56677;51.710;5.366;2023-08-08T17:15:30;4.38;;;1.50;;
69485;SDS011;56677;51.710;5.366;2023-08-08T17:17:56;4.20;;;1.10;;
69485;SDS011;56677;51.710;5.366;2023-08-08T17:20:21;4.50;;;1.40;;
69485;SDS011;56677;51.710;5.366;2023-08-08T17:22:46;5.95;;;1.20;;
69485;SDS011;56677;51.710;5.366;2023-08-08T17:25:11;5.95;;;1.45;;
69485;SDS011;56677;51.710;5.366;2023-08-08T17:27:36;6.43;;;1.20;;
69485;SDS011;56677;51.710;5.366;2023-08-08T17:30:02;2.72;;;1.45;;
69485;SDS011;56677;51.710;5.366;2023-08-08T17:32:27;5.90;;;1.25;;
69485;SDS011;56677;51.710;5.366;2023-08-08T17:34:52;7.53;;;1.70;;
69485;SDS011;56677;51.710;5.366;2023-08-08T17:37:18;6.28;;;1.60;;
69485;SDS011;56677;51.710;5.366;2023-08-08T17:39:43;7.97;;;1.50;;
69485;SDS011;56677;51.710;5.366;2023-08-08T17:42:08;4.32;;;1.27;;
69485;SDS011;56677;51.710;5.366;2023-08-08T17:44:33;6.00;;;1.27;;
69485;SDS011;56677;51.710;5.366;2023-08-08T17:46:58;3.85;;;1.48;;
69485;SDS011;56677;51.710;5.366;2023-08-08T17:49:23;5.07;;;1.42;;
69485;SDS011;56677;51.710;5.366;2023-08-08T17:51:48;5.00;;;1.40;;
69485;SDS011;56677;51.710;5.366;2023-08-08T17:54:14;3.80;;;1.23;;
69485;SDS011;56677;51.710;5.366;2023-08-08T17:56:39;4.65;;;1.40;;
69485;SDS011;56677;51.710;5.366;2023-08-08T17:59:04;3.90;;;1.23;;
69485;SDS011;56677;51.710;5.366;2023-08-08T18:01:29;4.38;;;1.20;;
69485;SDS011;56677;51.710;5.366;2023-08-08T18:03:54;7.13;;;1.40;;
69485;SDS011;56677;51.710;5.366;2023-08-08T18:06:19;3.80;;;1.20;;
69485;SDS011;56677;51.710;5.366;2023-08-08T18:08:44;3.23;;;1.60;;
69485;SDS011;56677;51.710;5.366;2023-08-08T18:11:10;3.35;;;1.48;;
69485;SDS011;56677;51.710;5.366;2023-08-08T18:13:35;2.90;;;1.30;;
69485;SDS011;56677;51.710;5.366;2023-08-08T18:16:00;2.88;;;1.20;;
69485;SDS011;56677;51.710;5.366;2023-08-08T18:18:25;4.78;;;1.40;;
69485;SDS011;56677;51.710;5.366;2023-08-08T18:20:50;4.63;;;1.60;;
69485;SDS011;56677;51.710;5.366;2023-08-08T18:23:15;3.35;;;1.20;;
69485;SDS011;56677;51.710;5.366;2023-08-08T18:25:41;4.13;;;1.35;;
69485;SDS011;56677;51.710;5.366;2023-08-08T18:28:06;3.90;;;1.30;;
69485;SDS011;56677;51.710;5.366;2023-08-08T18:30:31;3.47;;;1.30;;
69485;SDS011;56677;51.710;5.366;2023-08-08T18:32:56;4.70;;;1.73;;
69485;SDS011;56677;51.710;5.366;2023-08-08T18:35:21;6.03;;;1.58;;
69485;SDS011;56677;51.710;5.366;2023-08-08T18:37:46;6.63;;;1.50;;
69485;SDS011;56677;51.710;5.366;2023-08-08T18:40:11;5.37;;;1.80;;
69485;SDS011;56677;51.710;5.366;2023-08-08T18:42:37;5.13;;;1.40;;
69485;SDS011;56677;51.710;5.366;2023-08-08T18:45:02;4.90;;;1.23;;
69485;SDS011;56677;51.710;5.366;2023-08-08T18:47:27;3.87;;;1.50;;
69485;SDS011;56677;51.710;5.366;2023-08-08T18:49:52;3.58;;;1.67;;
69485;SDS011;56677;51.710;5.366;2023-08-08T18:52:17;3.70;;;1.40;;
69485;SDS011;56677;51.710;5.366;2023-08-08T18:54:42;3.63;;;1.23;;
69485;SDS011;56677;51.710;5.366;2023-08-08T18:57:07;3.07;;;1.57;;
69485;SDS011;56677;51.710;5.366;2023-08-08T18:59:33;3.50;;;1.60;;
69485;SDS011;56677;51.710;5.366;2023-08-08T19:01:58;4.07;;;1.23;;
69485;SDS011;56677;51.710;5.366;2023-08-08T19:04:23;4.18;;;1.60;;
69485;SDS011;56677;51.710;5.366;2023-08-08T19:06:48;5.40;;;1.60;;
69485;SDS011;56677;51.710;5.366;2023-08-08T19:09:13;4.15;;;1.45;;
69485;SDS011;56677;51.710;5.366;2023-08-08T19:11:38;4.70;;;1.40;;
69485;SDS011;56677;51.710;5.366;2023-08-08T19:14:03;4.55;;;1.98;;
69485;SDS011;56677;51.710;5.366;2023-08-08T19:16:29;3.83;;;1.60;;
69485;SDS011;56677;51.710;5.366;2023-08-08T19:18:54;3.67;;;1.47;;
69485;SDS011;56677;51.710;5.366;2023-08-08T19:21:20;5.90;;;1.98;;
69485;SDS011;56677;51.710;5.366;2023-08-08T19:23:45;7.13;;;1.42;;
69485;SDS011;56677;51.710;5.366;2023-08-08T19:26:10;5.78;;;1.40;;
69485;SDS011;56677;51.710;5.366;2023-08-08T20:15:25;2.47;;;0.98;;
69485;SDS011;56677;51.710;5.366;2023-08-08T20:17:50;2.07;;;1.27;;
69485;SDS011;56677;51.710;5.366;2023-08-08T20:20:15;2.58;;;1.00;;
69485;SDS011;56677;51.710;5.366;2023-08-08T20:22:40;2.93;;;1.20;;
69485;SDS011;56677;51.710;5.366;2023-08-08T20:25:05;2.58;;;1.10;;
69485;SDS011;56677;51.710;5.366;2023-08-08T20:27:31;2.33;;;0.93;;
69485;SDS011;56677;51.710;5.366;2023-08-08T20:29:56;2.87;;;1.07;;
69485;SDS011;56677;51.710;5.366;2023-08-08T20:32:21;2.67;;;1.08;;